Perrinton, Michigan
Current Conditions -  °F | °C
As of 5:31 AM on Wednesday 22 Oct 2014 (Local Time) from KAMN Reporting Station
Overcast Overcast  
Wind Chill: 40°   Ceiling: 2100
Heat Index: 40°   Visibility: 10mi
Dew Point: 35°   Wind: 3mph
Humidity: 83%   Direction: 340°NNW
Pressure: 30.31"   Gusts: NA
Location:  43.18°N, 84.68°W
Report Text: KAMN 220931Z AUTO 34003KT 10SM OVC021 04/02 A3031 RMK AO2 T00420016
Loading
Personal Weather Stations






























Interactive Weather Map
Tropical Storm Tracking
New forecast layout! Learn more

10-Day Weather Forecast

Advertisements
Track Severe Weather on mobile